Time;durP1;ratioP1;P1;durP2;ratioP2;P2;SDS_P1;SDS_P2;PMS_P1;PMS_P2;Temp;Humidity;BMP_temperature;BMP_pressure;BME280_temperature;BME280_humidity;BME280_pressure;Samples;Min_cycle;Max_cycle;Signal;HPM_P1;HPM_P2
2022/08/14 00:02:14;;;;;;;8.20;5.80;;;;;;;29.14;40.34;100083.45;104544;1309;61333;-81
2022/08/14 00:04:39;;;;;;;6.40;5.50;;;;;;;29.14;40.42;100078.42;104573;1309;61263;-81
2022/08/14 00:07:06;;;;;;;6.90;5.70;;;;;;;29.13;40.73;100077.36;104525;1309;61253;-81
2022/08/14 00:09:31;;;;;;;6.40;5.70;;;;;;;29.14;40.49;100079.68;104459;1309;61408;-81
2022/08/14 00:11:57;;;;;;;7.00;6.20;;;;;;;29.14;40.44;100081.30;104489;1309;61316;-81
2022/08/14 00:14:23;;;;;;;7.00;5.80;;;;;;;29.14;40.38;100077.88;104455;1309;61246;-81
2022/08/14 00:16:49;;;;;;;8.00;6.40;;;;;;;29.14;40.59;100070.48;104510;1309;61330;-81
2022/08/14 00:19:15;;;;;;;6.90;6.00;;;;;;;29.14;40.52;100065.75;104463;1308;72825;-81
2022/08/14 00:21:40;;;;;;;7.50;6.40;;;;;;;29.13;40.56;100065.23;104528;1309;61382;-81
2022/08/14 00:24:06;;;;;;;7.20;5.70;;;;;;;29.13;40.59;100063.10;104490;1309;61320;-81
2022/08/14 00:26:32;;;;;;;9.30;6.10;;;;;;;29.13;40.52;100058.20;104474;1309;61303;-81
2022/08/14 00:28:57;;;;;;;8.20;6.10;;;;;;;29.13;40.67;100057.33;104475;1309;61227;-81
2022/08/14 00:31:23;;;;;;;7.20;6.00;;;;;;;29.12;40.59;100056.10;104495;1309;72293;-81
2022/08/14 00:33:48;;;;;;;7.30;6.00;;;;;;;29.13;40.46;100055.39;104399;1309;62519;-81
2022/08/14 00:36:14;;;;;;;7.90;6.70;;;;;;;29.13;40.71;100050.09;104520;1309;61275;-80
2022/08/14 00:38:39;;;;;;;7.40;6.00;;;;;;;29.13;40.35;100047.92;104503;1309;61253;-80
2022/08/14 00:41:07;;;;;;;6.80;5.70;;;;;;;29.13;40.60;100045.04;104504;1309;61306;-80
2022/08/14 00:43:35;;;;;;;8.70;6.20;;;;;;;29.12;40.47;100041.81;104402;1309;71773;-80
2022/08/14 00:46:02;;;;;;;;;;;;;;;29.13;40.71;100043.36;104396;1309;76288;-80
2022/08/14 00:48:28;;;;;;;7.80;6.00;;;;;;;29.10;40.58;100040.64;104507;1309;62457;-81
2022/08/14 00:50:53;;;;;;;6.70;5.90;;;;;;;29.10;40.59;100040.53;104495;1309;61361;-81
2022/08/14 00:53:19;;;;;;;7.20;6.00;;;;;;;29.11;40.54;100038.90;104462;1309;61300;-82
2022/08/14 00:55:46;;;;;;;8.20;6.00;;;;;;;29.11;40.70;100037.98;104366;1309;61323;-81
2022/08/14 00:58:29;;;;;;;6.60;5.80;;;;;;;29.11;40.47;100039.45;104557;1309;61275;-83
2022/08/14 01:00:57;;;;;;;6.90;5.90;;;;;;;29.11;40.71;100037.08;104343;1311;61317;-81
2022/08/14 01:03:22;;;;;;;6.60;5.90;;;;;;;29.10;40.53;100032.96;104469;1309;72868;-82
2022/08/14 01:05:49;;;;;;;7.50;5.80;;;;;;;29.11;40.64;100029.86;104512;1307;61403;-82
2022/08/14 01:08:21;;;;;;;7.10;6.00;;;;;;;29.10;40.76;100029.70;104519;1308;59416;-82
2022/08/14 01:10:50;;;;;;;7.10;6.00;;;;;;;29.10;40.45;100033.50;104474;1308;61581;-82
2022/08/14 01:13:25;;;;;;;6.60;5.60;;;;;;;29.11;40.60;100040.11;104462;1312;72853;-82
2022/08/14 01:15:58;;;;;;;7.70;5.80;;;;;;;29.11;40.73;100042.54;104470;1309;74758;-82
2022/08/14 01:21:13;;;;;;;7.50;5.60;;;;;;;29.11;40.65;100038.90;104475;1309;61439;-82
2022/08/14 01:23:49;;;;;;;6.90;6.10;;;;;;;29.11;40.62;100038.73;104478;1309;73093;-82
2022/08/14 01:26:19;;;;;;;7.00;5.90;;;;;;;29.10;40.68;100036.80;104471;1309;75795;-82
2022/08/14 01:28:47;;;;;;;7.60;6.00;;;;;;;29.10;40.55;100038.77;104475;1309;61591;-82
2022/08/14 01:31:17;;;;;;;7.50;6.20;;;;;;;29.10;40.63;100036.21;104556;1308;61150;-82
2022/08/14 01:33:47;;;;;;;8.50;5.80;;;;;;;29.10;40.69;100036.80;104554;1309;73088;-82
2022/08/14 01:36:15;;;;;;;7.00;6.00;;;;;;;29.11;40.70;100035.48;104534;1309;73596;-82
2022/08/14 01:38:44;;;;;;;7.60;6.10;;;;;;;29.10;40.51;100034.43;104488;1309;61444;-82
2022/08/14 01:41:12;;;;;;;7.20;5.90;;;;;;;29.10;40.67;100037.34;104564;1309;61940;-82
2022/08/14 01:43:48;;;;;;;7.20;5.90;;;;;;;29.10;40.75;100036.77;104499;1309;74308;-82
2022/08/14 01:46:15;;;;;;;8.00;6.00;;;;;;;29.11;40.69;100034.39;104469;1309;74018;-82
2022/08/14 01:48:43;;;;;;;7.40;6.10;;;;;;;29.10;40.88;100034.59;104544;1309;61269;-82
2022/08/14 01:51:11;;;;;;;7.50;6.60;;;;;;;29.10;40.54;100034.28;104515;1309;61202;-82
2022/08/14 01:53:44;;;;;;;8.30;5.60;;;;;;;29.10;40.59;100034.76;104569;1309;73861;-82
2022/08/14 01:56:10;;;;;;;6.40;5.60;;;;;;;29.10;40.77;100032.98;104559;1309;74539;-82
2022/08/14 01:58:36;;;;;;;7.20;5.80;;;;;;;29.10;40.73;100037.52;104464;1308;61275;-82
2022/08/14 02:01:03;;;;;;;7.20;5.90;;;;;;;29.10;40.68;100037.53;104578;1309;61167;-82
2022/08/14 02:03:30;;;;;;;7.50;6.40;;;;;;;29.10;40.63;100037.86;104562;1309;61176;-82
2022/08/14 02:05:59;;;;;;;7.80;5.90;;;;;;;29.10;40.67;100038.44;104573;1309;61389;-82
2022/08/14 02:08:41;;;;;;;;;;;;;;;;;;;;;
2022/08/14 02:11:23;;;;;;;6.70;6.00;;;;;;;29.10;41.00;100039.72;104563;1309;61388;-82
2022/08/14 02:13:55;;;;;;;;;;;;;;;29.11;40.84;100044.01;104597;1309;72817;-82
2022/08/14 02:16:25;;;;;;;7.80;5.90;;;;;;;29.08;40.79;100043.75;104632;1309;61427;-82
2022/08/14 02:18:53;;;;;;;6.50;5.40;;;;;;;29.09;40.85;100044.39;104554;1309;61616;-82
2022/08/14 02:21:19;;;;;;;6.40;5.60;;;;;;;29.09;40.91;100044.39;104552;1309;61378;-82
2022/08/14 02:23:46;;;;;;;6.90;5.70;;;;;;;29.09;40.78;100045.81;104478;1309;61174;-82
2022/08/14 02:26:27;;;;;;;7.30;5.80;;;;;;;29.09;40.74;100048.49;104516;1309;76957;-82
2022/08/14 02:28:58;;;;;;;6.70;5.90;;;;;;;29.09;40.69;100050.45;104601;1308;61287;-82
2022/08/14 02:31:29;;;;;;;6.90;5.50;;;;;;;29.09;40.77;100047.75;104519;1309;61520;-82
2022/08/14 02:33:55;;;;;;;7.70;6.00;;;;;;;29.09;40.81;100044.48;104465;1309;73867;-82
2022/08/14 02:36:20;;;;;;;7.10;5.60;;;;;;;29.09;40.69;100046.66;104511;1309;59319;-82
2022/08/14 02:38:47;;;;;;;7.10;5.80;;;;;;;29.09;41.09;100047.61;104500;1309;61370;-82
2022/08/14 02:41:13;;;;;;;7.60;5.70;;;;;;;29.09;40.90;100050.48;104490;1308;61283;-82
2022/08/14 02:43:39;;;;;;;6.60;5.80;;;;;;;29.09;40.90;100050.16;104482;1309;61291;-82
2022/08/14 02:46:08;;;;;;;7.60;5.50;;;;;;;29.09;40.91;100051.08;104422;1309;61315;-82
2022/08/14 02:48:35;;;;;;;7.50;6.40;;;;;;;29.09;40.87;100051.45;104471;1309;61478;-82
2022/08/14 02:51:07;;;;;;;7.10;5.90;;;;;;;29.09;40.81;100048.02;104523;1309;60271;-82
2022/08/14 02:53:32;;;;;;;6.70;5.60;;;;;;;29.08;40.92;100048.98;104480;1309;73789;-82
2022/08/14 02:55:58;;;;;;;8.10;5.90;;;;;;;29.08;40.85;100045.54;104476;1309;61278;-82
2022/08/14 02:58:25;;;;;;;6.90;5.60;;;;;;;29.08;40.93;100042.24;104499;1309;62033;-82
2022/08/14 03:00:51;;;;;;;7.00;5.50;;;;;;;29.08;40.99;100042.66;104506;1309;61278;-82
2022/08/14 03:03:16;;;;;;;6.80;5.80;;;;;;;29.08;40.99;100040.15;104461;1309;61259;-82
2022/08/14 03:05:43;;;;;;;6.90;5.60;;;;;;;29.08;40.71;100043.91;102862;1309;2181344;-82
2022/08/14 03:08:11;;;;;;;7.10;5.60;;;;;;;29.08;40.82;100044.84;104443;1309;61270;-82
2022/08/14 03:10:37;;;;;;;6.40;5.60;;;;;;;29.07;40.92;100047.08;104599;1309;61147;-82
2022/08/14 03:13:03;;;;;;;6.20;5.40;;;;;;;29.07;40.97;100045.23;104410;1309;61342;-82
2022/08/14 03:15:31;;;;;;;7.60;5.90;;;;;;;29.08;40.93;100048.30;104404;1309;61159;-82
2022/08/14 03:17:57;;;;;;;7.40;5.80;;;;;;;29.07;40.90;100053.39;104487;1309;61147;-82
2022/08/14 03:20:23;;;;;;;6.10;5.50;;;;;;;29.07;40.70;100054.30;104507;1309;61374;-82
2022/08/14 03:22:50;;;;;;;6.70;5.20;;;;;;;29.07;41.02;100054.11;104519;1309;61251;-82
2022/08/14 03:25:15;;;;;;;6.30;5.60;;;;;;;29.07;40.92;100059.36;104491;1309;61297;-82
2022/08/14 03:27:41;;;;;;;6.50;5.80;;;;;;;29.07;40.93;100055.77;104482;1309;61274;-80
2022/08/14 03:30:08;;;;;;;6.80;5.60;;;;;;;29.08;41.11;100059.75;104498;1309;61263;-80
2022/08/14 03:32:33;;;;;;;7.30;5.80;;;;;;;29.07;40.80;100060.16;104545;1309;61193;-80
2022/08/14 03:34:59;;;;;;;7.40;6.10;;;;;;;29.07;40.79;100062.30;104577;1308;61279;-82
2022/08/14 03:37:25;;;;;;;7.20;5.80;;;;;;;29.08;40.89;100060.29;104516;1309;75781;-81
2022/08/14 03:39:54;;;;;;;7.50;5.80;;;;;;;29.07;41.06;100061.95;104495;1309;61166;-81
2022/08/14 03:42:20;;;;;;;7.60;6.10;;;;;;;29.07;41.13;100060.86;104520;1309;61916;-81
2022/08/14 03:44:47;;;;;;;6.40;5.60;;;;;;;29.07;41.09;100061.98;104499;1309;62016;-80
2022/08/14 03:47:13;;;;;;;6.80;5.60;;;;;;;29.07;41.00;100059.58;104514;1309;75528;-81
2022/08/14 03:49:39;;;;;;;6.40;5.60;;;;;;;29.08;41.10;100059.37;104502;1309;61381;-81
2022/08/14 03:52:05;;;;;;;6.30;5.70;;;;;;;29.07;41.01;100060.54;104434;1309;61340;-81
2022/08/14 03:54:34;;;;;;;6.30;5.70;;;;;;;29.08;41.14;100058.28;104481;1309;61271;-82
2022/08/14 03:57:00;;;;;;;6.40;5.70;;;;;;;29.07;41.02;100059.58;104413;1309;75647;-81
2022/08/14 03:59:26;;;;;;;7.00;6.20;;;;;;;29.07;40.90;100058.16;104545;1309;61266;-82
2022/08/14 04:01:52;;;;;;;6.60;5.80;;;;;;;29.07;41.19;100059.20;104468;1309;61288;-82
2022/08/14 04:04:17;;;;;;;6.30;5.40;;;;;;;29.07;41.01;100057.73;104410;1309;61311;-82
2022/08/14 04:06:43;;;;;;;7.10;5.80;;;;;;;29.08;40.87;100058.29;104481;1309;61322;-83
2022/08/14 04:09:10;;;;;;;7.80;6.40;;;;;;;29.08;41.32;100058.42;104480;1309;61351;-83
2022/08/14 04:11:35;;;;;;;7.30;5.60;;;;;;;29.08;40.95;100059.55;104515;1309;61577;-83
2022/08/14 04:14:03;;;;;;;6.90;5.60;;;;;;;29.08;41.00;100054.27;104523;1309;61257;-83
2022/08/14 04:16:28;;;;;;;6.50;5.80;;;;;;;29.07;41.16;100050.52;104500;1309;73932;-83
2022/08/14 04:18:55;;;;;;;6.20;5.60;;;;;;;29.08;41.06;100051.31;104530;1309;61314;-83
2022/08/14 04:21:28;;;;;;;6.30;5.50;;;;;;;29.08;41.07;100055.46;104473;1309;61138;-82
2022/08/14 04:23:58;;;;;;;7.40;6.00;;;;;;;29.08;40.98;100051.11;104463;1309;61144;-83
2022/08/14 04:26:26;;;;;;;7.20;6.00;;;;;;;29.08;41.28;100048.94;104579;1309;73832;-83
2022/08/14 04:28:52;;;;;;;7.40;5.90;;;;;;;29.08;41.10;100047.85;104505;1309;75861;-83
2022/08/14 04:31:18;;;;;;;7.00;5.80;;;;;;;29.09;41.06;100051.08;104475;1309;61285;-83
2022/08/14 04:33:44;;;;;;;7.00;5.90;;;;;;;29.09;40.90;100050.90;104503;1309;61180;-83
2022/08/14 04:36:09;;;;;;;6.70;5.60;;;;;;;29.09;41.02;100052.88;104464;1309;61265;-80
2022/08/14 04:44:04;;;;;;;6.20;5.60;;;;;;;29.09;40.96;100053.95;104489;1309;61530;-81
2022/08/14 04:46:29;;;;;;;7.50;6.10;;;;;;;29.09;41.20;100048.56;104453;1309;61307;-81
2022/08/14 04:48:56;;;;;;;6.00;5.30;;;;;;;29.08;40.80;100045.85;104474;1308;61414;-82
2022/08/14 04:51:26;;;;;;;7.10;5.70;;;;;;;29.09;41.05;100044.02;104408;1309;61354;-82
2022/08/14 04:53:53;;;;;;;6.40;5.50;;;;;;;29.09;40.87;100040.92;104494;1309;61646;-82
2022/08/14 04:56:23;;;;;;;6.90;5.70;;;;;;;29.09;40.99;100038.77;104478;1309;61333;-84
2022/08/14 04:58:50;;;;;;;6.90;5.30;;;;;;;29.08;41.02;100037.53;104445;1309;74706;-81
2022/08/14 05:01:16;;;;;;;6.30;5.50;;;;;;;29.08;41.05;100040.25;104552;1309;61299;-82
2022/08/14 05:03:42;;;;;;;6.30;5.60;;;;;;;29.09;41.19;100038.91;104478;1309;61279;-81
2022/08/14 05:06:09;;;;;;;7.10;5.80;;;;;;;29.09;40.84;100039.66;104462;1309;61216;-81
2022/08/14 05:08:35;;;;;;;6.70;5.60;;;;;;;29.09;41.04;100039.96;104473;1306;61295;-82
2022/08/14 05:11:05;;;;;;;6.80;5.60;;;;;;;29.09;40.84;100039.09;104484;1309;61320;-83
2022/08/14 05:13:31;;;;;;;7.10;5.70;;;;;;;29.09;40.96;100046.35;104616;1309;61514;-80
2022/08/14 05:15:58;;;;;;;6.50;5.50;;;;;;;29.09;41.09;100047.44;104405;1309;61335;-80
2022/08/14 05:18:31;;;;;;;7.10;5.60;;;;;;;29.09;41.06;100047.27;104431;1309;61221;-80
2022/08/14 05:20:57;;;;;;;6.80;5.60;;;;;;;29.08;41.05;100046.05;104345;1308;59748;-83
2022/08/14 05:23:25;;;;;;;6.70;5.50;;;;;;;29.09;40.96;100045.80;104603;1309;61256;-83
2022/08/14 05:25:54;;;;;;;7.50;5.70;;;;;;;29.08;41.17;100044.05;104456;1309;73802;-82
2022/08/14 05:28:24;;;;;;;;;;;;;;;29.09;41.16;100045.84;104423;1309;74809;-83
2022/08/14 05:30:57;;;;;;;6.40;5.20;;;;;;;29.06;40.98;100043.80;104610;1309;61245;-83
2022/08/14 05:33:27;;;;;;;7.10;5.80;;;;;;;29.07;41.22;100048.23;104572;1309;61172;-80
2022/08/14 05:35:59;;;;;;;6.50;5.80;;;;;;;29.07;41.20;100058.52;104474;1308;73945;-82
2022/08/14 05:38:34;;;;;;;6.90;5.50;;;;;;;29.06;41.14;100054.09;104476;1309;74692;-83
2022/08/14 05:41:01;;;;;;;6.80;5.90;;;;;;;29.07;41.25;100057.63;104509;1309;61577;-83
2022/08/14 05:43:29;;;;;;;6.20;5.60;;;;;;;29.06;41.26;100056.97;104491;1309;61349;-83
2022/08/14 05:45:56;;;;;;;7.90;5.80;;;;;;;29.07;41.46;100052.21;104503;1309;72795;-80
2022/08/14 05:48:23;;;;;;;7.40;6.00;;;;;;;29.06;41.01;100045.39;104586;1309;74791;-81
2022/08/14 05:50:48;;;;;;;6.50;5.40;;;;;;;29.07;41.09;100038.45;104488;1309;61287;-82
2022/08/14 05:53:14;;;;;;;10.20;5.80;;;;;;;29.06;41.10;100044.10;104597;1309;61261;-83
2022/08/14 05:55:40;;;;;;;7.30;6.10;;;;;;;29.07;41.17;100042.64;104470;1309;61160;-83
2022/08/14 05:58:07;;;;;;;6.60;5.80;;;;;;;29.07;41.21;100045.31;104452;1309;61297;-81
2022/08/14 06:00:38;;;;;;;7.40;5.60;;;;;;;29.07;41.04;100047.16;104432;1309;61368;-82
2022/08/14 06:03:06;;;;;;;7.20;6.10;;;;;;;29.07;41.24;100048.79;104559;1307;61522;-82
2022/08/14 06:05:32;;;;;;;7.50;6.00;;;;;;;29.06;41.31;100046.09;104373;1309;72711;-81
2022/08/14 06:07:58;;;;;;;6.90;6.00;;;;;;;29.07;41.04;100047.52;104430;1309;61315;-83
2022/08/14 06:10:24;;;;;;;6.50;5.60;;;;;;;29.07;41.16;100041.17;104443;1309;61199;-80
2022/08/14 06:12:49;;;;;;;8.50;5.60;;;;;;;29.06;41.33;100041.54;104634;1309;61289;-80
2022/08/14 06:15:15;;;;;;;7.70;6.20;;;;;;;29.07;41.29;100043.55;104461;1309;61299;-80
2022/08/14 06:17:44;;;;;;;7.00;5.50;;;;;;;29.07;41.41;100042.60;104536;1307;61410;-83
2022/08/14 06:20:11;;;;;;;7.10;5.90;;;;;;;29.07;41.19;100039.84;104553;1309;61839;-83
2022/08/14 06:22:36;;;;;;;7.30;5.60;;;;;;;29.07;41.23;100035.54;104493;1309;61377;-83
2022/08/14 06:25:02;;;;;;;6.90;5.60;;;;;;;29.08;41.31;100035.63;104529;1308;61384;-83
2022/08/14 06:27:32;;;;;;;7.70;6.10;;;;;;;29.08;41.30;100037.56;104512;1309;61320;-83
2022/08/14 06:29:58;;;;;;;7.50;6.00;;;;;;;29.09;41.55;100037.48;104404;1309;61511;-83
2022/08/14 06:32:23;;;;;;;7.50;6.20;;;;;;;29.09;41.39;100038.52;104543;1309;61382;-83
2022/08/14 06:34:49;;;;;;;8.80;6.30;;;;;;;29.10;41.65;100032.33;104548;1309;61254;-83
2022/08/14 06:37:17;;;;;;;8.10;6.10;;;;;;;29.10;41.72;100031.13;104490;1309;61274;-83
2022/08/14 06:39:43;;;;;;;8.50;6.60;;;;;;;29.11;41.55;100032.68;104526;1309;61287;-83
2022/08/14 06:42:08;;;;;;;8.30;6.20;;;;;;;29.11;41.76;100029.08;104496;1309;61284;-83
2022/08/14 06:44:34;;;;;;;7.70;6.10;;;;;;;29.12;41.68;100030.09;104458;1309;62046;-80
2022/08/14 06:47:03;;;;;;;7.30;5.50;;;;;;;29.13;41.99;100026.15;104502;1309;61438;-81
2022/08/14 06:49:29;;;;;;;6.90;6.20;;;;;;;29.14;42.17;100030.55;104443;1309;75733;-82
2022/08/14 06:51:55;;;;;;;7.90;6.20;;;;;;;29.14;42.09;100027.26;104559;1309;61288;-81
2022/08/14 06:54:21;;;;;;;8.60;6.20;;;;;;;29.15;42.11;100026.40;104467;1309;61235;-81
2022/08/14 06:56:47;;;;;;;6.80;5.80;;;;;;;29.16;41.99;100027.05;104560;1308;61702;-81
2022/08/14 06:59:15;;;;;;;7.00;6.20;;;;;;;29.16;42.24;100025.36;104477;1309;61284;-82
2022/08/14 07:07:10;;;;;;;7.70;6.00;;;;;;;29.19;42.14;100026.34;104533;1309;72711;-81
2022/08/14 07:09:35;;;;;;;8.00;5.80;;;;;;;29.19;42.24;100025.63;104478;1309;61339;-81
2022/08/14 07:12:01;;;;;;;7.90;5.90;;;;;;;29.19;42.21;100027.36;104553;1309;61410;-81
2022/08/14 07:14:27;;;;;;;9.80;6.20;;;;;;;29.19;42.31;100027.77;104347;1309;61288;-81
2022/08/14 07:16:53;;;;;;;6.70;5.70;;;;;;;29.19;42.46;100027.59;104583;1309;61129;-81
2022/08/14 07:19:18;;;;;;;7.10;6.20;;;;;;;29.18;42.46;100023.53;104566;1309;62177;-80
2022/08/14 07:21:44;;;;;;;7.70;6.80;;;;;;;29.18;42.24;100023.53;104440;1309;61272;-82
2022/08/14 07:24:09;;;;;;;7.10;6.10;;;;;;;29.18;42.56;100026.14;104473;1309;61292;-81
2022/08/14 07:26:35;;;;;;;7.50;6.20;;;;;;;29.18;42.62;100033.01;104584;1309;61401;-82
2022/08/14 07:29:01;;;;;;;8.70;6.50;;;;;;;29.17;42.44;100033.84;104469;1308;61383;-81
2022/08/14 07:31:26;;;;;;;8.10;6.30;;;;;;;29.17;42.33;100038.02;104508;1309;61290;-82
2022/08/14 07:33:52;;;;;;;7.90;6.20;;;;;;;29.17;42.47;100043.82;104635;1309;61384;-82
2022/08/14 07:36:19;;;;;;;6.80;5.80;;;;;;;29.16;42.62;100045.14;104607;1309;61291;-82
2022/08/14 07:38:44;;;;;;;6.90;5.70;;;;;;;29.17;42.52;100043.48;104506;1309;61189;-82
2022/08/14 07:41:11;;;;;;;7.00;5.90;;;;;;;29.16;42.44;100042.13;104556;1309;61391;-82
2022/08/14 07:43:37;;;;;;;8.30;5.90;;;;;;;29.16;42.41;100044.13;104483;1309;61364;-82
2022/08/14 07:46:03;;;;;;;7.50;6.40;;;;;;;29.15;42.38;100043.63;104482;1309;61468;-82
2022/08/14 07:48:28;;;;;;;9.80;6.80;;;;;;;29.16;42.35;100044.68;104545;1309;61336;-82
2022/08/14 07:50:54;;;;;;;7.60;6.20;;;;;;;29.15;42.64;100046.58;104507;1309;62023;-83
2022/08/14 07:53:20;;;;;;;7.30;6.10;;;;;;;29.15;42.76;100041.86;104385;1309;61178;-83
2022/08/14 07:55:47;;;;;;;8.00;6.40;;;;;;;29.14;42.59;100044.45;104549;1309;61473;-83
2022/08/14 07:58:13;;;;;;;8.00;5.80;;;;;;;29.15;42.70;100050.59;104493;1309;61291;-83
2022/08/14 08:00:39;;;;;;;8.20;5.90;;;;;;;29.14;42.75;100059.02;104505;1309;61343;-83
2022/08/14 08:03:08;;;;;;;8.10;5.90;;;;;;;29.14;42.46;100065.05;104450;1309;61297;-83
2022/08/14 08:05:35;;;;;;;8.00;6.30;;;;;;;29.13;42.50;100077.58;104483;1308;75870;-83
2022/08/14 08:08:01;;;;;;;7.30;6.30;;;;;;;29.13;42.54;100078.45;104470;1309;61197;-83
2022/08/14 08:10:32;;;;;;;9.60;6.40;;;;;;;29.14;42.68;100071.22;104307;1312;61360;-83
2022/08/14 08:13:12;;;;;;;8.50;6.70;;;;;;;29.13;42.72;100058.99;104461;1309;74013;-83
2022/08/14 08:15:49;;;;;;;8.10;6.50;;;;;;;29.12;42.67;100050.14;104503;1309;74696;-81
2022/08/14 08:18:16;;;;;;;7.60;6.50;;;;;;;29.12;42.62;100054.34;104479;1309;61323;-80
2022/08/14 08:20:45;;;;;;;6.90;5.60;;;;;;;29.11;42.72;100061.32;104404;1309;62734;-82
2022/08/14 08:23:12;;;;;;;8.00;6.10;;;;;;;29.11;42.73;100067.46;104541;1309;72651;-83
2022/08/14 08:25:39;;;;;;;7.10;6.10;;;;;;;29.12;42.78;100062.91;104434;1309;61477;-83
2022/08/14 08:28:07;;;;;;;7.40;6.00;;;;;;;29.11;42.69;100057.02;104550;1309;61636;-80
2022/08/14 08:30:33;;;;;;;9.50;6.60;;;;;;;29.11;42.83;100045.42;104490;1309;61452;-82
2022/08/14 08:33:00;;;;;;;7.50;6.10;;;;;;;29.11;42.81;100040.54;104505;1309;61307;-83
2022/08/14 08:35:27;;;;;;;7.70;6.50;;;;;;;29.10;42.99;100032.96;104419;1309;76951;-81
2022/08/14 08:37:54;;;;;;;8.70;6.60;;;;;;;29.11;42.97;100027.29;104546;1309;61408;-81
2022/08/14 08:40:34;;;;;;;7.40;6.00;;;;;;;29.10;43.02;100011.60;104477;1309;61326;-81
2022/08/14 08:43:05;;;;;;;9.40;6.30;;;;;;;29.10;42.96;99999.68;104474;1309;72834;-82
2022/08/14 08:45:31;;;;;;;8.20;6.20;;;;;;;29.10;43.07;99995.33;104533;1309;74635;-80
2022/08/14 08:47:57;;;;;;;9.10;5.90;;;;;;;29.10;42.86;99992.40;104434;1309;62209;-82
2022/08/14 08:50:28;;;;;;;7.20;6.10;;;;;;;29.11;43.30;99997.77;104533;1309;61249;-82
2022/08/14 08:52:54;;;;;;;8.30;6.10;;;;;;;29.11;43.17;99996.52;104532;1309;72987;-82
2022/08/14 08:55:25;;;;;;;7.80;6.50;;;;;;;29.11;43.12;99983.23;104466;1309;61570;-81
2022/08/14 08:57:55;;;;;;;7.90;6.30;;;;;;;29.11;42.99;99975.79;104514;1309;61338;-82
2022/08/14 09:00:21;;;;;;;8.00;6.30;;;;;;;29.11;43.14;99971.64;104498;1308;61842;-82
2022/08/14 09:02:58;;;;;;;7.50;6.00;;;;;;;29.12;43.21;99970.85;104539;1309;61318;-81
2022/08/14 09:05:24;;;;;;;7.80;6.00;;;;;;;29.12;43.34;99974.66;104467;1309;76121;-82
2022/08/14 09:07:50;;;;;;;7.80;6.10;;;;;;;29.12;43.19;99974.67;104431;1309;61182;-82
2022/08/14 09:10:16;;;;;;;7.80;6.00;;;;;;;29.12;43.40;99980.27;104536;1309;61253;-81
2022/08/14 09:12:42;;;;;;;8.40;5.80;;;;;;;29.13;43.33;100001.15;104546;1309;61258;-81
2022/08/14 09:15:09;;;;;;;9.40;6.00;;;;;;;29.13;43.34;99983.93;104590;1309;61260;-81
2022/08/14 09:17:35;;;;;;;8.30;6.30;;;;;;;29.14;43.50;99973.89;104575;1309;61388;-81
2022/08/14 09:20:01;;;;;;;8.10;5.90;;;;;;;29.15;43.48;99968.73;104485;1309;61732;-81
2022/08/14 09:22:27;;;;;;;6.60;5.80;;;;;;;29.14;43.37;99965.84;104435;1308;61304;-81
2022/08/14 09:24:53;;;;;;;7.90;6.30;;;;;;;29.14;43.41;99958.06;104250;1309;61281;-81
2022/08/14 09:27:18;;;;;;;7.10;5.70;;;;;;;29.15;43.47;99958.94;104410;1308;61284;-81
2022/08/14 09:29:44;;;;;;;7.80;6.00;;;;;;;29.15;43.39;99959.41;104497;1309;61240;-81
2022/08/14 09:32:10;;;;;;;7.90;6.00;;;;;;;29.16;43.41;99951.73;104629;1309;61362;-81
2022/08/14 09:34:38;;;;;;;7.90;5.80;;;;;;;29.16;43.49;99954.22;104549;1308;61302;-81
2022/08/14 09:37:27;;;;;;;6.70;6.00;;;;;;;29.16;43.42;99953.88;104568;1309;75684;-81
2022/08/14 09:40:30;;;;;;;7.50;5.70;;;;;;;29.16;43.38;99936.31;104605;1308;61479;-81
2022/08/14 09:43:05;;;;;;;6.60;5.70;;;;;;;29.16;43.27;99927.64;104486;1309;61179;-83
2022/08/14 09:45:47;;;;;;;7.80;5.80;;;;;;;29.16;43.40;99930.88;104427;1309;72854;-81
2022/08/14 09:48:17;;;;;;;8.10;5.90;;;;;;;29.15;43.53;99918.24;104431;1309;75769;-81
2022/08/14 09:50:47;;;;;;;6.30;5.50;;;;;;;29.16;43.35;99918.75;104567;1309;61156;-81
2022/08/14 09:53:33;;;;;;;8.10;6.00;;;;;;;29.15;43.49;99925.48;104551;1308;61834;-81
2022/08/14 09:55:59;;;;;;;6.80;5.70;;;;;;;29.16;43.49;99941.51;104559;1308;72711;-82
2022/08/14 09:58:38;;;;;;;7.90;6.00;;;;;;;29.16;43.69;99941.54;104480;1309;61291;-82
2022/08/14 10:01:21;;;;;;;;;;;;;;;29.16;43.62;99940.04;104674;1309;61416;-81
2022/08/14 10:03:53;;;;;;;6.90;5.90;;;;;;;29.14;43.49;99928.38;104584;1308;61598;-81
2022/08/14 10:06:22;;;;;;;7.60;5.70;;;;;;;29.15;43.32;99924.28;104621;1309;71662;-81
2022/08/14 10:08:49;;;;;;;7.60;6.40;;;;;;;29.15;43.60;99921.54;104586;1307;74204;-81
2022/08/14 10:11:20;;;;;;;7.80;6.10;;;;;;;29.15;43.36;99917.40;104533;1309;61380;-81
2022/08/14 10:13:54;;;;;;;7.20;5.80;;;;;;;29.15;43.48;99909.01;104581;1309;61361;-81
2022/08/14 10:16:23;;;;;;;7.30;5.80;;;;;;;29.15;43.68;99897.26;104527;1309;73327;-81
2022/08/14 10:18:52;;;;;;;7.50;5.80;;;;;;;29.16;43.42;99896.51;104580;1308;75001;-81
2022/08/14 10:21:17;;;;;;;7.60;6.40;;;;;;;29.15;43.44;99895.48;104598;1308;61121;-81
2022/08/14 10:23:48;;;;;;;6.90;5.90;;;;;;;29.15;43.45;99894.91;104591;1309;61376;-81
2022/08/14 10:26:16;;;;;;;8.50;5.70;;;;;;;29.15;43.41;99895.27;104580;1308;72622;-81
2022/08/14 10:28:47;;;;;;;7.10;5.50;;;;;;;29.15;43.72;99892.53;104514;1309;74701;-81
2022/08/14 10:31:33;;;;;;;7.50;6.40;;;;;;;29.16;43.55;99886.34;104599;1308;61398;-81
2022/08/14 10:34:06;;;;;;;7.60;5.60;;;;;;;29.15;43.45;99896.91;104613;1309;61170;-81
2022/08/14 10:36:34;;;;;;;7.30;5.60;;;;;;;29.15;43.63;99905.91;104597;1308;74219;-81
2022/08/14 10:39:05;;;;;;;7.70;5.50;;;;;;;29.15;43.49;99911.19;104622;1309;74570;-81
2022/08/14 10:41:39;;;;;;;6.90;5.70;;;;;;;29.16;43.66;99907.89;104542;1308;61239;-81
2022/08/14 10:44:13;;;;;;;6.90;5.80;;;;;;;29.16;43.70;99906.52;104580;1308;61320;-81
2022/08/14 10:46:53;;;;;;;7.00;5.90;;;;;;;29.16;43.67;99901.45;104610;1309;73652;-82
2022/08/14 10:49:20;;;;;;;7.30;5.80;;;;;;;29.17;43.42;99901.92;104615;1309;75646;-82
2022/08/14 10:52:07;;;;;;;7.20;6.00;;;;;;;29.17;43.70;99903.55;104625;1309;61177;-82
2022/08/14 10:54:44;;;;;;;8.10;5.70;;;;;;;29.17;43.55;99901.92;104484;1309;61272;-82
2022/08/14 10:57:14;;;;;;;9.60;6.00;;;;;;;29.17;43.64;99902.42;104600;1309;74183;-82
2022/08/14 10:59:45;;;;;;;6.50;5.60;;;;;;;29.17;43.49;99899.55;104591;1308;74559;-81
2022/08/14 11:02:28;;;;;;;7.80;5.90;;;;;;;29.18;43.73;99893.49;104621;1309;61173;-81
2022/08/14 11:05:17;;;;;;;7.60;5.90;;;;;;;29.18;43.49;99894.20;104606;1307;61282;-82
2022/08/14 11:07:57;;;;;;;7.40;5.80;;;;;;;29.19;43.72;99896.85;104611;1308;74087;-82
2022/08/14 11:10:25;;;;;;;7.10;5.90;;;;;;;29.18;43.79;99894.16;104598;1306;75838;-82
2022/08/14 11:12:54;;;;;;;7.10;5.90;;;;;;;29.19;43.57;99887.39;104549;1309;61567;-81
2022/08/14 11:15:26;;;;;;;6.90;5.80;;;;;;;29.19;43.67;99892.45;104629;1308;61262;-81
2022/08/14 11:17:52;;;;;;;6.30;5.70;;;;;;;29.19;43.71;99887.39;104494;1308;73864;-82
2022/08/14 11:20:19;;;;;;;7.50;5.60;;;;;;;29.19;43.76;99883.73;104536;1308;61354;-83
2022/08/14 11:22:46;;;;;;;7.30;5.70;;;;;;;29.19;43.76;99881.55;104602;1308;61208;-82
2022/08/14 11:25:13;;;;;;;7.10;6.00;;;;;;;29.19;43.96;99875.16;104502;1309;61123;-82
2022/08/14 11:27:43;;;;;;;8.60;6.20;;;;;;;29.20;43.88;99874.55;104503;1309;72810;-82
2022/08/14 11:30:16;;;;;;;7.50;6.00;;;;;;;29.20;43.89;99870.87;104599;1309;74518;-82
2022/08/14 11:32:49;;;;;;;7.60;5.70;;;;;;;29.21;43.82;99870.50;104533;1309;61271;-82
2022/08/14 11:35:16;;;;;;;8.10;6.00;;;;;;;29.21;43.80;99859.08;104525;1309;61148;-82
2022/08/14 11:38:01;;;;;;;7.30;5.50;;;;;;;29.21;43.82;99854.52;104560;1309;73844;-82
2022/08/14 11:40:29;;;;;;;7.10;5.90;;;;;;;29.21;43.77;99855.79;104551;1309;75645;-82
2022/08/14 11:42:55;;;;;;;8.00;5.80;;;;;;;29.21;43.78;99849.94;104546;1309;61603;-81